Melinda Brent — WDC2606 — position and weather

sailwx.info

Track history (hours):
 
Tides and Currents Weather Stations Pressure Air Temp Water Temp Dewpoint Dewpoint Depression Visibility Wind Speed Wind Dir Waves Ship Positions

Melinda Brent

Owner: Kirby Inland Marine, LP, Houston, TX. More information available from US FCC via Universal Licensing System and Coast Guard Vessel Documentation Center.

Last reported at 2017-Sep-13 05:58 UTC. Time now 2017-Sep-24 17:51 UTC.
Position N 29°29' W 094°52'.
Warning: this ship's position is 11 days out of date.

Length 116 m; draft 2.4 m.

Type: . MMSI: 366995520.

Date/timePositionNaut miles runAvg speedWind from/ knotsBaromVisibWave heightAir tempDewpointWater temp
2017-Sep-13 05:58N 29°29' W 094°52'3 6.0
2017-Sep-13 05:30N 29°31' W 094°53'3 6.4
2017-Sep-13 05:00N 29°34' W 094°55'3 6.6
2017-Sep-13 04:30N 29°37' W 094°57'3 6.7
2017-Sep-13 04:00N 29°40' W 094°58'3 6.3
2017-Sep-13 03:30N 29°42' W 095°01'3 5.8
2017-Sep-13 02:59N 29°44' W 095°03'2 0.1
2017-Sep-12 02:10N 29°46' W 095°05'0 0.0
2017-Sep-11 23:14N 29°46' W 095°05'4 4.1
2017-Sep-11 22:10N 29°44' W 095°09'0 0.0
2017-Sep-10 10:52N 29°45' W 095°10'  
2017-Sep-06 05:36N 29°47' W 095°04'0 0.0
2017-Sep-06 05:26N 29°47' W 095°04'0 0.0
2017-Sep-06 05:00N 29°47' W 095°04'1 0.1
2017-Sep-05 21:16N 29°46' W 095°05'  
Track history (hours):
 
Tides and Currents Weather Stations Pressure Air Temp Water Temp Dewpoint Dewpoint Depression Visibility Wind Speed Wind Dir Waves Ship Positions

Melinda Brent

Owner: Kirby Inland Marine, LP, Houston, TX. More information available from US FCC via Universal Licensing System and Coast Guard Vessel Documentation Center.

Last reported at 2017-Sep-13 05:58 UTC. Time now 2017-Sep-24 17:51 UTC.
Position N 29°29' W 094°52'.
Warning: this ship's position is 11 days out of date.

Length 116 m; draft 2.4 m.

Type: . MMSI: 366995520.

Date/timePositionNaut miles runAvg speedWind from/ knotsBaromVisibWave heightAir tempDewpointWater temp
2017-Sep-13 05:58N 29°29' W 094°52'3 6.0
2017-Sep-13 05:30N 29°31' W 094°53'3 6.4
2017-Sep-13 05:00N 29°34' W 094°55'3 6.6
2017-Sep-13 04:30N 29°37' W 094°57'3 6.7
2017-Sep-13 04:00N 29°40' W 094°58'3 6.3
2017-Sep-13 03:30N 29°42' W 095°01'3 5.8
2017-Sep-13 02:59N 29°44' W 095°03'2 0.1
2017-Sep-12 02:10N 29°46' W 095°05'0 0.0
2017-Sep-11 23:14N 29°46' W 095°05'4 4.1
2017-Sep-11 22:10N 29°44' W 095°09'0 0.0
2017-Sep-10 10:52N 29°45' W 095°10'  
2017-Sep-06 05:36N 29°47' W 095°04'0 0.0
2017-Sep-06 05:26N 29°47' W 095°04'0 0.0
2017-Sep-06 05:00N 29°47' W 095°04'1 0.1
2017-Sep-05 21:16N 29°46' W 095°05'  

Dump ship's entire track history